Time;durP1;ratioP1;P1;durP2;ratioP2;P2;SDS_P1;SDS_P2;PMS_P1;PMS_P2;Temp;Humidity;BMP_temperature;BMP_pressure;BME280_temperature;BME280_humidity;BME280_pressure;Samples;Min_cycle;Max_cycle;Signal;HPM_P1;HPM_P2
2024/01/15 00:01:44;;;;;;;156.93;64.38;;;;;;;6.94;nan;99115.03;4992348;28;20118;-70
2024/01/15 00:04:13;;;;;;;164.75;65.95;;;;;;;6.72;nan;99116.44;4995246;28;20046;-70
2024/01/15 00:06:43;;;;;;;160.15;66.50;;;;;;;6.71;nan;99114.78;4996420;28;20049;-71
2024/01/15 00:09:12;;;;;;;164.63;67.65;;;;;;;6.76;nan;99115.13;4980176;28;20070;-70
2024/01/15 00:11:42;;;;;;;161.48;67.75;;;;;;;6.73;nan;99117.22;4999128;28;20125;-70
2024/01/15 00:14:14;;;;;;;166.73;68.32;;;;;;;6.58;nan;99118.81;5005446;28;20068;-70
2024/01/15 00:16:43;;;;;;;174.88;68.43;;;;;;;6.61;nan;99124.59;5026740;28;20748;-70
2024/01/15 00:19:13;;;;;;;155.75;67.15;;;;;;;6.83;nan;99122.38;5018163;28;20046;-70
2024/01/15 00:21:43;;;;;;;162.70;68.00;;;;;;;6.77;nan;99124.66;4993930;28;20394;-70
2024/01/15 00:24:12;;;;;;;166.18;69.50;;;;;;;6.64;nan;99128.69;5000423;28;20537;-70
2024/01/15 00:26:42;;;;;;;167.20;69.55;;;;;;;6.66;nan;99124.13;5004405;28;20045;-70
2024/01/15 00:29:11;;;;;;;166.75;68.55;;;;;;;6.72;nan;99136.66;4999862;28;20313;-70
2024/01/15 00:31:40;;;;;;;168.18;69.57;;;;;;;6.83;nan;99136.38;4980661;28;20069;-70
2024/01/15 00:34:10;;;;;;;161.00;68.78;;;;;;;6.88;nan;99126.19;4978730;28;20145;-71
2024/01/15 00:36:39;;;;;;;174.52;67.55;;;;;;;6.66;nan;99132.00;4986869;28;20054;-70
2024/01/15 00:39:10;;;;;;;157.88;67.50;;;;;;;6.94;nan;99133.47;5000925;28;20381;-70
2024/01/15 00:41:40;;;;;;;151.73;63.45;;;;;;;6.86;nan;99133.41;4988385;28;20050;-70
2024/01/15 00:44:10;;;;;;;158.02;65.03;;;;;;;6.74;nan;99137.31;5000354;28;20049;-70
2024/01/15 00:46:46;;;;;;;162.77;69.32;;;;;;;6.78;nan;99142.09;4995309;28;20772;-70
2024/01/15 00:49:16;;;;;;;166.35;67.68;;;;;;;6.77;nan;99147.53;4985332;28;20065;-70
2024/01/15 00:51:46;;;;;;;175.38;69.85;;;;;;;6.67;nan;99152.09;4999118;28;20046;-70
2024/01/15 00:54:15;;;;;;;168.27;65.95;;;;;;;6.84;nan;99161.72;4988759;28;20513;-69
2024/01/15 00:56:44;;;;;;;163.45;69.25;;;;;;;6.82;nan;99161.03;4995468;28;20061;-70
2024/01/15 00:59:14;;;;;;;171.32;66.82;;;;;;;6.71;nan;99162.16;5004879;28;20663;-70
2024/01/15 01:01:45;;;;;;;169.25;68.75;;;;;;;6.72;nan;99170.88;5000068;28;20085;-69
2024/01/15 01:04:15;;;;;;;166.00;68.22;;;;;;;6.62;nan;99180.69;4988640;28;20064;-70
2024/01/15 01:06:44;;;;;;;167.85;68.38;;;;;;;6.71;nan;99177.94;5006472;28;20042;-70
2024/01/15 01:09:14;;;;;;;171.45;70.30;;;;;;;6.71;nan;99171.84;4988176;28;20492;-70
2024/01/15 01:11:43;;;;;;;174.38;71.55;;;;;;;6.70;nan;99160.50;5003925;28;20046;-70
2024/01/15 01:14:13;;;;;;;155.98;66.47;;;;;;;6.87;nan;99166.66;4998135;28;20056;-70
2024/01/15 01:16:43;;;;;;;179.65;70.13;;;;;;;6.77;nan;99155.44;4998663;28;20303;-70
2024/01/15 01:19:12;;;;;;;164.57;67.97;;;;;;;6.99;nan;99160.13;4995964;28;20046;-70
2024/01/15 01:21:42;;;;;;;167.75;68.63;;;;;;;7.10;nan;99161.66;5016358;28;20093;-69
2024/01/15 01:24:12;;;;;;;172.23;68.18;;;;;;;7.08;nan;99164.44;5008775;28;20050;-69
2024/01/15 01:26:41;;;;;;;160.50;66.80;;;;;;;6.98;nan;99162.94;5020893;28;20045;-69
2024/01/15 01:29:10;;;;;;;172.43;69.45;;;;;;;6.79;nan;99158.72;5010715;28;20124;-70
2024/01/15 01:31:46;;;;;;;153.48;65.97;;;;;;;6.79;nan;99163.97;5002304;28;20048;-70
2024/01/15 01:34:17;;;;;;;164.95;66.82;;;;;;;6.79;nan;99161.34;5017341;28;20165;-69
2024/01/15 01:36:46;;;;;;;162.85;65.40;;;;;;;6.85;nan;99163.38;4995857;28;20060;-69
2024/01/15 01:39:16;;;;;;;154.80;65.10;;;;;;;6.86;nan;99169.47;4996269;28;20046;-69
2024/01/15 01:41:45;;;;;;;152.52;64.13;;;;;;;7.05;nan;99179.72;4989985;28;20045;-69
2024/01/15 01:44:15;;;;;;;162.95;64.20;;;;;;;6.88;nan;99181.47;5015299;28;20136;-70
2024/01/15 01:46:45;;;;;;;159.27;63.55;;;;;;;6.89;nan;99182.31;5014446;28;20057;-69
2024/01/15 01:49:14;;;;;;;161.63;66.60;;;;;;;6.91;nan;99178.50;5025296;28;20051;-69
2024/01/15 01:51:46;;;;;;;152.45;61.35;;;;;;;6.92;nan;99176.72;5022584;28;20060;-71
2024/01/15 01:54:16;;;;;;;155.63;65.65;;;;;;;6.87;nan;99176.34;5018319;28;20500;-70
2024/01/15 01:56:49;;;;;;;143.73;62.95;;;;;;;6.87;nan;99185.09;5024066;28;20048;-70
2024/01/15 01:59:18;;;;;;;162.27;65.78;;;;;;;7.00;nan;99190.75;5013507;28;20058;-70
2024/01/15 02:01:49;;;;;;;150.13;63.30;;;;;;;6.93;nan;99192.38;5006791;28;20053;-70
2024/01/15 02:04:18;;;;;;;149.57;64.93;;;;;;;6.81;nan;99193.63;5005687;28;20131;-70
2024/01/15 02:06:50;;;;;;;153.02;64.20;;;;;;;6.75;nan;99210.84;5014696;28;20057;-70
2024/01/15 02:09:19;;;;;;;155.75;66.53;;;;;;;6.96;nan;99207.00;5005035;28;20464;-70
2024/01/15 02:11:49;;;;;;;148.73;62.88;;;;;;;6.91;nan;99223.28;4992607;28;20074;-70
2024/01/15 02:14:18;;;;;;;160.02;65.40;;;;;;;6.81;nan;99219.94;5012132;28;20054;-70
2024/01/15 02:16:47;;;;;;;151.77;63.38;;;;;;;6.59;nan;99223.09;4994112;28;20132;-69
2024/01/15 02:19:18;;;;;;;144.02;64.45;;;;;;;6.80;nan;99220.91;5024617;28;20056;-70
2024/01/15 02:21:47;;;;;;;154.35;66.65;;;;;;;6.96;nan;99212.28;5022405;28;20060;-69
2024/01/15 02:24:17;;;;;;;166.52;68.47;;;;;;;6.96;nan;99218.38;5010495;28;20896;-72
2024/01/15 02:26:46;;;;;;;172.35;69.28;;;;;;;7.05;nan;99222.69;4998181;28;20034;-70
2024/01/15 02:29:16;;;;;;;176.75;72.78;;;;;;;6.78;nan;99222.88;5004055;28;20045;-70
2024/01/15 02:31:45;;;;;;;175.98;69.25;;;;;;;6.93;nan;99220.50;5002320;28;20073;-71
2024/01/15 02:34:15;;;;;;;168.77;67.80;;;;;;;6.90;nan;99223.44;5017117;28;20042;-69
2024/01/15 02:36:44;;;;;;;170.95;66.90;;;;;;;6.70;nan;99213.13;4972755;28;20057;-70
2024/01/15 02:39:14;;;;;;;163.07;66.72;;;;;;;6.69;nan;99215.91;4970972;28;20140;-70
2024/01/15 02:41:43;;;;;;;169.45;70.13;;;;;;;6.56;nan;99218.94;4990029;28;20046;-70
2024/01/15 02:44:12;;;;;;;162.82;65.93;;;;;;;6.72;nan;99215.63;4998439;28;20458;-69
2024/01/15 02:46:42;;;;;;;155.05;64.70;;;;;;;6.85;nan;99213.38;5000660;28;20786;-70
2024/01/15 02:49:12;;;;;;;166.85;66.80;;;;;;;6.95;nan;99200.91;4998601;28;20636;-70
2024/01/15 02:51:42;;;;;;;165.23;67.35;;;;;;;7.04;nan;99199.97;5010187;28;20043;-69
2024/01/15 02:54:11;;;;;;;160.18;65.72;;;;;;;6.88;nan;99206.97;4995032;28;20049;-70
2024/01/15 02:56:41;;;;;;;176.13;69.88;;;;;;;7.07;nan;99207.56;5008126;28;20060;-70
2024/01/15 02:59:10;;;;;;;181.10;72.22;;;;;;;6.82;nan;99207.59;4986278;28;20050;-70
2024/01/15 03:01:40;;;;;;;175.88;70.40;;;;;;;6.92;nan;99211.78;4990967;28;20461;-70
2024/01/15 03:04:09;;;;;;;177.23;73.38;;;;;;;7.03;nan;99203.63;4997748;28;20046;-70
2024/01/15 03:06:38;;;;;;;191.05;75.18;;;;;;;7.00;nan;99203.91;4984450;28;20549;-70
2024/01/15 03:09:08;;;;;;;188.52;75.85;;;;;;;6.96;nan;99212.28;4996483;28;20724;-70
2024/01/15 03:11:41;;;;;;;186.60;76.05;;;;;;;7.05;nan;99216.59;4995282;28;20100;-69
2024/01/15 03:14:11;;;;;;;196.63;79.95;;;;;;;7.06;nan;99216.44;5000080;28;20080;-70
2024/01/15 03:16:40;;;;;;;204.38;83.38;;;;;;;7.16;nan;99227.69;5007644;28;20049;-69
2024/01/15 03:19:09;;;;;;;203.15;82.22;;;;;;;7.07;nan;99220.75;5003476;28;20050;-69
2024/01/15 03:21:42;;;;;;;213.00;84.40;;;;;;;7.08;nan;99226.84;4992587;28;20145;-67
2024/01/15 03:24:11;;;;;;;210.73;85.85;;;;;;;7.22;nan;99236.75;4986857;28;20155;-68
2024/01/15 03:26:45;;;;;;;206.63;83.05;;;;;;;6.96;nan;99244.69;4973192;28;20076;-68
2024/01/15 03:29:15;;;;;;;236.25;87.10;;;;;;;6.89;nan;99242.84;4997445;28;20478;-68
2024/01/15 03:31:50;;;;;;;207.50;81.47;;;;;;;7.02;nan;99246.72;4961138;28;20042;-70
2024/01/15 03:34:20;;;;;;;226.27;88.45;;;;;;;6.97;nan;99241.09;4998159;28;20120;-70
2024/01/15 03:36:52;;;;;;;222.77;86.32;;;;;;;6.84;nan;99243.31;4999098;28;20046;-70
2024/01/15 03:39:22;;;;;;;214.43;87.00;;;;;;;6.83;nan;99239.03;5004015;28;20049;-69
2024/01/15 03:41:51;;;;;;;223.07;86.85;;;;;;;6.68;nan;99238.75;5006035;28;20406;-70
2024/01/15 03:44:20;;;;;;;221.27;84.97;;;;;;;6.81;nan;99241.00;4998791;28;20050;-70
2024/01/15 03:46:51;;;;;;;237.98;90.82;;;;;;;6.89;nan;99235.78;4982334;28;20075;-68
2024/01/15 03:49:20;;;;;;;228.93;91.50;;;;;;;7.00;nan;99227.59;4980514;28;20411;-69
2024/01/15 03:51:49;;;;;;;244.88;95.68;;;;;;;6.95;nan;99235.16;4992554;28;20063;-69
2024/01/15 03:54:19;;;;;;;248.20;94.20;;;;;;;6.98;nan;99234.84;4993859;28;20056;-70
2024/01/15 03:56:48;;;;;;;269.65;103.95;;;;;;;6.91;nan;99241.69;4996179;28;20072;-69
2024/01/15 03:59:17;;;;;;;255.75;102.57;;;;;;;7.22;nan;99242.84;4988261;28;20081;-69
2024/01/15 04:01:53;;;;;;;287.38;105.50;;;;;;;7.22;nan;99240.22;4993620;28;20093;-70
2024/01/15 04:04:23;;;;;;;299.80;114.72;;;;;;;7.31;nan;99237.63;4985703;28;20045;-69
2024/01/15 04:06:52;;;;;;;309.05;114.70;;;;;;;7.26;nan;99255.72;4988163;28;20340;-70
2024/01/15 04:09:22;;;;;;;302.17;114.32;;;;;;;7.40;nan;99261.22;4997244;28;20370;-69
2024/01/15 04:11:51;;;;;;;301.33;115.32;;;;;;;7.41;nan;99262.88;5002159;28;20042;-69
2024/01/15 04:14:21;;;;;;;311.20;115.43;;;;;;;7.60;nan;99277.59;4999214;28;20053;-70
2024/01/15 04:16:50;;;;;;;328.98;121.60;;;;;;;7.74;nan;99277.00;5006255;28;20076;-70
2024/01/15 04:19:19;;;;;;;309.77;117.40;;;;;;;7.59;nan;99274.13;5002747;28;20046;-68
2024/01/15 04:21:48;;;;;;;307.38;117.40;;;;;;;7.71;nan;99282.56;5004233;28;20061;-70
2024/01/15 04:24:18;;;;;;;326.63;122.28;;;;;;;7.53;nan;99284.47;4991745;28;20064;-70
2024/01/15 04:26:48;;;;;;;333.80;126.82;;;;;;;7.40;nan;99284.94;5021369;28;20053;-71
2024/01/15 04:29:17;;;;;;;339.63;121.53;;;;;;;7.47;nan;99282.50;5004942;28;20466;-70
2024/01/15 04:31:46;;;;;;;350.02;126.15;;;;;;;7.68;nan;99296.09;5010471;28;20417;-70
2024/01/15 04:34:16;;;;;;;332.00;129.57;;;;;;;7.82;nan;99287.56;5006084;28;20046;-71
2024/01/15 04:36:45;;;;;;;345.10;131.65;;;;;;;7.71;nan;99279.94;4989769;28;20137;-68
2024/01/15 04:39:14;;;;;;;336.00;128.55;;;;;;;7.62;nan;99284.34;4997145;28;20049;-68
2024/01/15 04:41:44;;;;;;;332.40;131.18;;;;;;;7.64;nan;99285.03;4979890;28;20056;-69
2024/01/15 04:44:13;;;;;;;343.40;138.32;;;;;;;7.91;nan;99273.41;4984242;28;20046;-68
2024/01/15 04:46:43;;;;;;;340.52;135.43;;;;;;;7.94;nan;99288.06;4994546;28;20132;-70
2024/01/15 04:49:13;;;;;;;325.55;128.75;;;;;;;7.92;nan;99290.06;4992912;28;20119;-69
2024/01/15 04:51:43;;;;;;;342.75;133.80;;;;;;;7.62;nan;99283.53;4994081;28;20052;-70
2024/01/15 04:54:12;;;;;;;337.10;131.82;;;;;;;7.86;nan;99299.44;4998056;28;20053;-68
2024/01/15 04:56:42;;;;;;;342.27;134.00;;;;;;;7.88;nan;99294.81;4981038;28;20080;-69
2024/01/15 04:59:12;;;;;;;351.58;135.23;;;;;;;7.88;nan;99296.63;4993454;28;20137;-69
2024/01/15 05:01:41;;;;;;;335.48;132.80;;;;;;;7.79;nan;99294.97;4981244;28;20050;-69
2024/01/15 05:04:11;;;;;;;319.38;129.27;;;;;;;7.82;nan;99289.38;5002682;28;20050;-67
2024/01/15 05:06:41;;;;;;;308.52;123.20;;;;;;;7.80;nan;99289.53;4993867;28;20052;-71
2024/01/15 05:09:10;;;;;;;270.50;112.32;;;;;;;7.58;nan;99282.19;4997189;28;20054;-67
2024/01/15 05:11:40;;;;;;;283.27;111.82;;;;;;;7.78;nan;99283.59;4995197;28;20045;-68
2024/01/15 05:14:09;;;;;;;278.17;110.13;;;;;;;7.96;nan;99278.22;4984099;28;20548;-68
2024/01/15 05:16:40;;;;;;;259.65;102.90;;;;;;;7.75;nan;99281.25;4990639;28;20041;-68
2024/01/15 05:19:09;;;;;;;230.40;96.85;;;;;;;7.67;nan;99286.50;4987244;28;20145;-69
2024/01/15 05:21:38;;;;;;;234.00;90.57;;;;;;;7.92;nan;99287.44;4992108;28;20132;-68
2024/01/15 05:24:09;;;;;;;221.93;87.15;;;;;;;7.72;nan;99286.03;4994430;28;20049;-68
2024/01/15 05:26:39;;;;;;;227.20;85.78;;;;;;;7.80;nan;99280.78;4985286;28;20779;-68
2024/01/15 05:29:08;;;;;;;198.93;81.70;;;;;;;7.70;nan;99291.47;4993707;28;20069;-68
2024/01/15 05:31:37;;;;;;;205.07;80.10;;;;;;;7.56;nan;99268.38;4990477;28;20108;-67
2024/01/15 05:34:07;;;;;;;204.57;79.25;;;;;;;7.51;nan;99263.56;4992853;28;20042;-67
2024/01/15 05:36:36;;;;;;;222.60;83.78;;;;;;;7.67;nan;99263.63;4992694;28;20046;-69
2024/01/15 05:39:06;;;;;;;211.23;78.75;;;;;;;8.07;nan;99257.59;4965776;28;20792;-68
2024/01/15 05:41:35;;;;;;;189.85;77.18;;;;;;;8.35;nan;99265.25;4987644;28;20050;-66
2024/01/15 05:44:05;;;;;;;190.02;72.55;;;;;;;7.95;nan;99260.72;5017334;28;20144;-67
2024/01/15 05:46:34;;;;;;;180.82;68.18;;;;;;;7.97;nan;99277.19;5002822;28;20066;-64
2024/01/15 05:49:03;;;;;;;167.00;71.68;;;;;;;7.95;nan;99277.38;4985795;28;20049;-64
2024/01/15 05:51:32;;;;;;;161.13;63.90;;;;;;;7.99;nan;99270.78;4993190;28;20050;-63
2024/01/15 05:54:02;;;;;;;161.45;65.50;;;;;;;7.84;nan;99271.56;4983738;28;20061;-66
2024/01/15 05:56:31;;;;;;;159.70;65.07;;;;;;;7.83;nan;99272.56;4995020;28;20607;-65
2024/01/15 05:59:00;;;;;;;159.70;65.70;;;;;;;8.21;nan;99281.69;4991459;28;20145;-65
2024/01/15 06:01:30;;;;;;;167.35;68.38;;;;;;;8.09;nan;99276.75;4981296;28;20042;-64
2024/01/15 06:03:59;;;;;;;164.93;69.03;;;;;;;8.28;nan;99275.59;5005974;28;20042;-66
2024/01/15 06:06:28;;;;;;;161.40;66.25;;;;;;;8.62;nan;99275.50;5007089;28;20050;-65
2024/01/15 06:09:05;;;;;;;173.00;69.03;;;;;;;8.28;nan;99274.78;4993899;28;20129;-66
2024/01/15 06:11:34;;;;;;;174.35;68.68;;;;;;;8.25;nan;99265.38;4993996;28;20054;-65
2024/01/15 06:14:04;;;;;;;176.27;74.35;;;;;;;8.38;nan;99262.28;5004630;28;20477;-66
2024/01/15 06:16:33;;;;;;;171.40;68.68;;;;;;;8.42;nan;99266.25;4992162;28;20038;-66
2024/01/15 06:19:03;;;;;;;153.43;66.47;;;;;;;8.62;nan;99264.94;5001367;28;20057;-66
2024/01/15 06:21:33;;;;;;;165.20;69.50;;;;;;;8.54;nan;99255.19;5001861;28;20110;-66
2024/01/15 06:24:02;;;;;;;149.18;66.22;;;;;;;8.77;nan;99251.84;4987203;28;20058;-64
2024/01/15 06:26:32;;;;;;;168.77;68.65;;;;;;;8.82;nan;99239.81;5001816;28;20046;-65
2024/01/15 06:29:02;;;;;;;149.07;66.78;;;;;;;8.98;nan;99241.59;5000271;28;20112;-65
2024/01/15 06:31:32;;;;;;;158.40;68.00;;;;;;;9.07;nan;99231.84;5008156;28;20056;-64
2024/01/15 06:34:01;;;;;;;158.75;68.82;;;;;;;9.42;nan;99226.09;5014615;28;20119;-66
2024/01/15 06:36:31;;;;;;;161.38;69.47;;;;;;;9.03;nan;99228.69;4984241;28;20292;-65
2024/01/15 06:39:00;;;;;;;161.38;70.68;;;;;;;9.37;nan;99223.13;4986730;28;20063;-64
2024/01/15 06:41:29;;;;;;;160.60;69.60;;;;;;;9.72;nan;99219.16;4986405;28;20050;-65
2024/01/15 06:43:59;;;;;;;169.32;69.90;;;;;;;10.14;nan;99223.97;4988409;28;20050;-64
2024/01/15 06:46:28;;;;;;;173.43;73.18;;;;;;;10.08;nan;99216.78;5022319;28;20050;-65
2024/01/15 06:48:57;;;;;;;170.45;75.85;;;;;;;10.47;nan;99209.53;5010374;28;20045;-64
2024/01/15 06:51:27;;;;;;;171.52;74.97;;;;;;;10.33;nan;99211.13;4998481;28;20042;-65
2024/01/15 06:53:56;;;;;;;163.25;69.88;;;;;;;10.28;nan;99216.13;5009121;28;20366;-64
2024/01/15 06:56:26;;;;;;;169.25;72.53;;;;;;;10.75;nan;99207.13;5015559;28;20470;-64
2024/01/15 06:58:55;;;;;;;165.32;72.80;;;;;;;10.97;nan;99205.41;4994224;28;20077;-64
2024/01/15 07:01:24;;;;;;;155.55;71.72;;;;;;;10.58;nan;99203.78;4994758;28;20046;-64
2024/01/15 07:03:54;;;;;;;166.95;74.93;;;;;;;10.71;nan;99203.19;5000806;28;20054;-63
2024/01/15 07:06:23;;;;;;;173.35;77.18;;;;;;;11.30;nan;99198.69;4999948;28;20120;-64
2024/01/15 07:08:53;;;;;;;182.57;82.15;;;;;;;11.20;nan;99192.84;5024650;28;20160;-64
2024/01/15 07:11:22;;;;;;;180.30;80.95;;;;;;;11.39;nan;99192.28;5009223;28;20491;-65
2024/01/15 07:13:53;;;;;;;186.95;86.43;;;;;;;11.58;nan;99180.25;4999366;28;20120;-66
2024/01/15 07:16:22;;;;;;;206.75;90.25;;;;;;;11.57;nan;99174.13;4988470;28;20182;-66
2024/01/15 07:19:03;;;;;;;194.15;88.38;;;;;;;11.88;nan;99178.38;4997868;28;20137;-67
2024/01/15 07:21:33;;;;;;;191.75;88.85;;;;;;;12.14;nan;99166.16;4998021;28;20056;-68
2024/01/15 07:24:02;;;;;;;199.30;91.97;;;;;;;12.04;nan;99151.56;5009984;28;20062;-67
2024/01/15 07:26:31;;;;;;;176.45;84.75;;;;;;;12.21;nan;99155.63;4999096;28;20054;-66
2024/01/15 07:29:00;;;;;;;187.35;87.32;;;;;;;12.29;nan;99152.00;5003768;28;20054;-66
2024/01/15 07:31:30;;;;;;;187.88;84.95;;;;;;;12.06;nan;99157.50;4992272;28;20127;-64
2024/01/15 07:34:00;;;;;;;179.07;85.70;;;;;;;11.99;nan;99148.69;5006385;28;20062;-65
2024/01/15 07:36:29;;;;;;;177.75;85.95;;;;;;;12.26;nan;99131.94;4994461;28;20054;-65
2024/01/15 07:38:59;;;;;;;188.15;85.70;;;;;;;12.18;nan;99136.56;5006877;28;20839;-66
2024/01/15 07:41:28;;;;;;;198.68;87.88;;;;;;;12.25;nan;99135.63;5003778;28;20128;-66
2024/01/15 07:43:57;;;;;;;182.02;86.18;;;;;;;12.08;nan;99142.22;5016846;28;20061;-66
2024/01/15 07:46:26;;;;;;;178.38;86.03;;;;;;;12.05;nan;99131.97;5026285;28;20057;-65
2024/01/15 07:48:57;;;;;;;179.90;85.32;;;;;;;12.43;nan;99129.84;4996816;28;20093;-66
2024/01/15 07:51:27;;;;;;;198.45;89.63;;;;;;;12.27;nan;99130.09;4989009;28;20470;-66
2024/01/15 07:53:56;;;;;;;191.45;92.28;;;;;;;12.28;nan;99124.59;4998518;28;20110;-66
2024/01/15 07:56:27;;;;;;;188.23;91.53;;;;;;;12.32;nan;99128.50;4990599;28;20587;-67
2024/01/15 07:58:57;;;;;;;193.73;91.05;;;;;;;12.68;nan;99141.66;5001588;28;20077;-66
2024/01/15 08:01:26;;;;;;;187.82;92.30;;;;;;;12.56;nan;99135.22;4993511;28;20674;-67
2024/01/15 08:03:55;;;;;;;187.20;90.85;;;;;;;12.70;nan;99114.88;5008528;28;20053;-66
2024/01/15 08:06:25;;;;;;;181.48;88.00;;;;;;;12.79;nan;99122.47;5025574;28;20050;-66
2024/01/15 08:08:54;;;;;;;186.05;88.60;;;;;;;12.84;nan;99116.56;5011023;28;20046;-66
2024/01/15 08:11:23;;;;;;;175.68;84.85;;;;;;;12.58;nan;99099.47;5015985;28;20045;-66
2024/01/15 08:13:53;;;;;;;176.63;85.68;;;;;;;12.84;nan;99097.97;5016534;28;20033;-67
2024/01/15 08:16:24;;;;;;;177.85;86.88;;;;;;;12.86;nan;99083.47;5015563;28;20202;-67
2024/01/15 08:18:54;;;;;;;180.15;86.78;;;;;;;12.86;nan;99087.97;4962974;28;20042;-66
2024/01/15 08:21:24;;;;;;;175.95;84.25;;;;;;;12.82;nan;99094.69;5004914;28;20088;-66
2024/01/15 08:23:53;;;;;;;174.98;85.88;;;;;;;12.93;nan;99092.28;5012802;28;20142;-67
2024/01/15 08:26:22;;;;;;;158.13;84.15;;;;;;;12.75;nan;99084.03;5005452;28;20050;-66
2024/01/15 08:28:52;;;;;;;168.85;82.95;;;;;;;12.80;nan;99088.75;5005763;28;20046;-66
2024/01/15 08:31:21;;;;;;;170.23;84.05;;;;;;;12.49;nan;99079.38;5010968;28;20055;-66
2024/01/15 08:33:51;;;;;;;166.05;83.00;;;;;;;12.60;nan;99075.38;5005988;28;20046;-66
2024/01/15 08:36:22;;;;;;;163.02;84.65;;;;;;;12.44;nan;99068.53;5004113;28;20096;-66
2024/01/15 08:38:51;;;;;;;173.48;84.88;;;;;;;12.49;nan;99075.91;5001375;28;20136;-66
2024/01/15 08:41:20;;;;;;;167.10;84.45;;;;;;;12.40;nan;99067.28;4999698;28;20065;-66
2024/01/15 08:43:51;;;;;;;167.25;80.70;;;;;;;12.17;nan;99049.97;4997521;28;20073;-66
2024/01/15 08:46:20;;;;;;;165.43;80.18;;;;;;;12.14;nan;99057.31;5008690;28;20497;-66
2024/01/15 08:48:50;;;;;;;162.60;81.28;;;;;;;12.20;nan;99055.72;5013735;28;20045;-66
2024/01/15 08:51:19;;;;;;;163.35;80.85;;;;;;;12.20;nan;99045.09;5016781;28;20160;-66
2024/01/15 08:53:48;;;;;;;165.43;80.65;;;;;;;12.32;nan;99027.59;5007427;28;20050;-66
2024/01/15 08:56:18;;;;;;;155.25;77.78;;;;;;;12.40;nan;99027.44;4987156;28;20085;-66
2024/01/15 08:58:47;;;;;;;171.55;81.05;;;;;;;11.93;nan;99008.75;5004090;28;20629;-66
2024/01/15 09:01:16;;;;;;;167.38;81.05;;;;;;;11.96;nan;99013.66;5005748;28;20561;-66
2024/01/15 09:03:48;;;;;;;168.57;81.53;;;;;;;11.90;nan;99012.63;5017459;28;20064;-66
2024/01/15 09:06:18;;;;;;;174.10;82.65;;;;;;;12.02;nan;99010.25;5019582;28;20125;-66
2024/01/15 09:08:47;;;;;;;165.40;84.70;;;;;;;12.06;nan;99011.50;4998333;28;20141;-66
2024/01/15 09:11:16;;;;;;;175.38;82.90;;;;;;;12.27;nan;99016.72;5001891;28;20052;-66
2024/01/15 09:13:46;;;;;;;176.70;84.10;;;;;;;12.08;nan;99017.44;5004758;28;20050;-66
2024/01/15 09:16:15;;;;;;;165.27;80.47;;;;;;;12.24;nan;99019.78;5004524;28;20054;-66
2024/01/15 09:18:46;;;;;;;162.75;79.75;;;;;;;12.29;nan;99017.38;4984133;28;20046;-67
2024/01/15 09:21:16;;;;;;;175.30;82.32;;;;;;;12.39;nan;99031.09;4996305;28;20070;-66
2024/01/15 09:23:46;;;;;;;170.90;81.68;;;;;;;12.56;nan;99031.63;5000334;28;20139;-67
2024/01/15 09:26:15;;;;;;;159.38;77.70;;;;;;;12.57;nan;99039.38;4990139;28;20050;-66
2024/01/15 09:28:44;;;;;;;161.05;76.18;;;;;;;12.40;nan;99046.03;4992236;28;20108;-66
2024/01/15 09:31:13;;;;;;;155.57;76.28;;;;;;;12.49;nan;99039.53;5002782;28;20060;-66
2024/01/15 09:33:44;;;;;;;163.85;75.97;;;;;;;12.34;nan;99030.88;5006399;28;20508;-66
2024/01/15 09:36:13;;;;;;;153.45;74.82;;;;;;;12.14;nan;99028.09;5002118;28;20135;-66
2024/01/15 09:38:42;;;;;;;173.50;79.85;;;;;;;11.79;nan;99021.09;5002743;28;20139;-67
2024/01/15 09:41:12;;;;;;;159.43;74.93;;;;;;;11.77;nan;99017.84;5011253;28;20049;-66
2024/01/15 09:43:42;;;;;;;152.82;72.05;;;;;;;11.91;nan;99003.63;5007818;28;20145;-66
2024/01/15 09:46:12;;;;;;;155.60;74.30;;;;;;;12.11;nan;98990.50;5003439;28;20058;-66
2024/01/15 09:48:41;;;;;;;150.05;71.82;;;;;;;11.96;nan;98995.09;5003424;28;20049;-66
2024/01/15 09:51:11;;;;;;;160.75;75.70;;;;;;;11.69;nan;98989.56;5004676;28;20476;-66
2024/01/15 09:53:42;;;;;;;153.38;72.80;;;;;;;11.77;nan;98986.00;5008224;28;20049;-67
2024/01/15 09:56:12;;;;;;;159.15;75.32;;;;;;;11.99;nan;98994.72;5010080;28;20053;-66
2024/01/15 09:58:42;;;;;;;154.73;72.10;;;;;;;11.77;nan;98998.44;5009970;28;20065;-66
2024/01/15 10:01:13;;;;;;;154.95;72.20;;;;;;;11.50;nan;98984.13;5004092;28;20054;-66
2024/01/15 10:03:43;;;;;;;149.77;69.88;;;;;;;11.57;nan;98987.63;5007860;28;20072;-65
2024/01/15 10:06:19;;;;;;;150.93;71.03;;;;;;;11.47;nan;98985.28;5003923;28;20068;-66
2024/01/15 10:08:51;;;;;;;157.02;73.53;;;;;;;11.51;nan;98986.56;5021885;28;20054;-66
2024/01/15 10:11:20;;;;;;;151.52;69.05;;;;;;;11.41;nan;98986.06;5008345;28;20494;-66
2024/01/15 10:13:53;;;;;;;140.43;71.22;;;;;;;11.57;nan;98985.78;5019518;28;20045;-67
2024/01/15 10:16:26;;;;;;;156.60;72.95;;;;;;;11.38;nan;98983.78;5023898;28;20041;-66
2024/01/15 10:18:55;;;;;;;148.75;69.70;;;;;;;11.64;nan;98983.19;5024196;28;20060;-66
2024/01/15 10:21:26;;;;;;;150.55;70.32;;;;;;;11.71;nan;98981.41;5007636;28;20061;-65
2024/01/15 10:23:56;;;;;;;150.43;71.28;;;;;;;11.94;nan;98975.91;5002973;28;20058;-66
2024/01/15 10:26:26;;;;;;;148.50;71.68;;;;;;;11.93;nan;98968.94;5003809;28;20046;-67
2024/01/15 10:28:56;;;;;;;150.98;70.53;;;;;;;11.68;nan;98982.59;4991789;28;20149;-66
2024/01/15 10:31:26;;;;;;;154.70;69.80;;;;;;;11.42;nan;98982.38;5007857;28;20053;-64
2024/01/15 10:34:15;;;;;;;139.25;68.18;;;;;;;11.64;nan;98980.53;5009676;28;20053;-66
2024/01/15 10:36:47;;;;;;;152.60;71.00;;;;;;;11.48;nan;98975.50;5004073;28;20053;-66
2024/01/15 10:39:17;;;;;;;174.77;74.90;;;;;;;11.57;nan;98969.88;5004243;28;20068;-66
2024/01/15 10:41:46;;;;;;;153.38;71.05;;;;;;;11.43;nan;98970.78;5005087;28;20100;-67
2024/01/15 10:44:16;;;;;;;158.70;71.90;;;;;;;11.52;nan;98963.50;4996938;28;20042;-67
2024/01/15 10:46:47;;;;;;;154.95;72.93;;;;;;;11.56;nan;98964.75;4984454;28;20046;-67
2024/01/15 10:49:18;;;;;;;154.43;71.55;;;;;;;11.47;nan;98966.72;4994099;28;20042;-67
2024/01/15 10:51:50;;;;;;;153.85;71.72;;;;;;;11.41;nan;98962.22;4998285;28;20041;-67
2024/01/15 10:54:21;;;;;;;150.68;70.15;;;;;;;11.55;nan;98961.28;5008276;28;20042;-68
2024/01/15 10:56:51;;;;;;;149.25;69.47;;;;;;;11.81;nan;98971.31;5001430;28;20042;-66
2024/01/15 10:59:22;;;;;;;157.93;72.47;;;;;;;11.69;nan;98956.91;4651179;28;10000198;-66
2024/01/15 11:01:53;;;;;;;158.75;74.40;;;;;;;11.54;nan;98959.66;4982032;28;20043;-65
2024/01/15 11:04:26;;;;;;;163.85;72.95;;;;;;;11.54;nan;98954.34;4992603;28;20045;-66
2024/01/15 11:06:56;;;;;;;165.07;72.70;;;;;;;11.54;nan;98946.41;4990695;28;20046;-66
2024/01/15 11:09:26;;;;;;;158.07;73.10;;;;;;;11.52;nan;98959.03;5015278;28;20469;-66
2024/01/15 11:12:12;;;;;;;159.00;73.13;;;;;;;11.43;nan;98952.22;5002219;28;20050;-66
2024/01/15 11:14:46;;;;;;;151.40;70.32;;;;;;;11.60;nan;98958.06;4995688;28;20038;-67
2024/01/15 11:17:17;;;;;;;160.80;75.32;;;;;;;11.57;nan;98967.22;5001304;28;20156;-67
2024/01/15 11:19:51;;;;;;;180.40;78.60;;;;;;;11.62;nan;98970.13;5003794;28;20782;-66
2024/01/15 11:22:30;;;;;;;159.23;75.03;;;;;;;11.56;nan;98980.66;5000637;28;20137;-67
2024/01/15 11:25:04;;;;;;;157.25;72.30;;;;;;;11.44;nan;98977.72;5003743;28;20521;-66
2024/01/15 11:28:00;;;;;;;159.32;70.22;;;;;;;11.49;nan;98977.97;4986034;28;20051;-67
2024/01/15 11:30:30;;;;;;;159.23;71.03;;;;;;;11.30;nan;98972.50;4984083;28;20545;-66
2024/01/15 11:32:59;;;;;;;155.90;72.00;;;;;;;11.17;nan;98967.91;5001402;28;20149;-66
2024/01/15 11:35:50;;;;;;;159.07;73.63;;;;;;;11.15;nan;98962.78;4987080;28;20049;-66
2024/01/15 11:38:29;;;;;;;164.25;72.28;;;;;;;11.24;nan;98958.19;4985178;28;20138;-67
2024/01/15 11:40:59;;;;;;;160.35;74.68;;;;;;;10.98;nan;98963.22;4981396;28;20050;-66
2024/01/15 11:43:31;;;;;;;159.18;72.35;;;;;;;10.93;nan;98963.78;4978340;28;20053;-66